Time,TemperatureF,DewpointF,PressureIn,WindDirection,WindDirectionDegrees,WindSpeedMPH,WindSpeedGustMPH,Humidity,HourlyPrecipIn,Conditions,Clouds,dailyrainin,SoftwareType,DateUTC
2013-02-22 00:06:00,32.7,21.0,30.27,NW,319,0.0,2.0,62,0.00,,,0.00,weatherlink.com 1.10,2013-02-22 05:06:00,
2013-02-22 00:21:00,31.7,21.0,30.27,NW,319,1.0,2.0,66,0.00,,,0.00,weatherlink.com 1.10,2013-02-22 05:21:00,
2013-02-22 00:36:00,31.2,21.0,30.27,NW,319,1.0,1.0,67,0.00,,,0.00,weatherlink.com 1.10,2013-02-22 05:36:00,
2013-02-22 00:51:00,31.2,21.0,30.28,NW,319,0.0,2.0,67,0.00,,,0.00,weatherlink.com 1.10,2013-02-22 05:51:00,
2013-02-22 01:06:00,30.7,21.0,30.29,NW,319,1.0,2.0,68,0.00,,,0.00,weatherlink.com 1.10,2013-02-22 06:06:00,
2013-02-22 01:21:00,30.6,21.0,30.30,WNW,299,1.0,4.0,67,0.00,,,0.00,weatherlink.com 1.10,2013-02-22 06:21:00,
2013-02-22 01:36:00,31.7,20.0,30.29,NW,304,1.0,4.0,62,0.00,,,0.00,weatherlink.com 1.10,2013-02-22 06:36:00,
2013-02-22 01:51:00,31.9,20.0,30.29,NW,304,1.0,3.0,63,0.00,,,0.00,weatherlink.com 1.10,2013-02-22 06:51:00,
2013-02-22 02:06:00,31.9,21.0,30.29,NW,313,1.0,3.0,64,0.00,,,0.00,weatherlink.com 1.10,2013-02-22 07:06:00,
2013-02-22 02:21:00,31.8,20.0,30.30,NW,313,1.0,2.0,61,0.00,,,0.00,weatherlink.com 1.10,2013-02-22 07:21:00,
2013-02-22 02:37:00,31.5,21.0,30.31,WNW,295,3.0,3.0,64,0.00,,,0.00,weatherlink.com 1.10,2013-02-22 07:37:00,
2013-02-22 02:52:00,31.6,20.0,30.32,West,271,2.0,5.0,63,0.00,,,0.00,weatherlink.com 1.10,2013-02-22 07:52:00,
2013-02-22 03:07:00,31.8,21.0,30.32,West,267,4.0,5.0,64,0.00,,,0.00,weatherlink.com 1.10,2013-02-22 08:07:00,
2013-02-22 03:22:00,32.0,20.0,30.33,WNW,285,1.0,5.0,62,0.00,,,0.00,weatherlink.com 1.10,2013-02-22 08:22:00,
2013-02-22 03:37:00,32.3,20.0,30.34,West,262,2.0,6.0,62,0.00,,,0.00,weatherlink.com 1.10,2013-02-22 08:37:00,
2013-02-22 03:52:00,32.5,20.0,30.34,WNW,288,2.0,6.0,60,0.00,,,0.00,weatherlink.com 1.10,2013-02-22 08:52:00,
2013-02-22 04:07:00,32.7,20.0,30.35,West,281,0.0,6.0,61,0.00,,,0.00,weatherlink.com 1.10,2013-02-22 09:07:00,
2013-02-22 04:22:00,32.7,21.0,30.35,WNW,300,2.0,4.0,62,0.00,,,0.00,weatherlink.com 1.10,2013-02-22 09:22:00,
2013-02-22 04:37:00,32.5,21.0,30.35,NNW,338,3.0,7.0,63,0.00,,,0.00,weatherlink.com 1.10,2013-02-22 09:37:00,
2013-02-22 04:52:00,32.5,22.0,30.35,North,360,5.0,5.0,65,0.00,,,0.00,weatherlink.com 1.10,2013-02-22 09:52:00,
2013-02-22 05:07:00,32.4,21.0,30.36,North,350,4.0,5.0,63,0.00,,,0.00,weatherlink.com 1.10,2013-02-22 10:07:00,
2013-02-22 05:22:00,32.3,22.0,30.35,NW,321,1.0,6.0,65,0.00,,,0.00,weatherlink.com 1.10,2013-02-22 10:22:00,
2013-02-22 05:37:00,32.1,21.0,30.32,NW,321,1.0,2.0,64,0.00,,,0.00,weatherlink.com 1.10,2013-02-22 10:37:00,
2013-02-22 05:52:00,31.9,20.0,30.32,East,80,0.0,3.0,63,0.00,,,0.00,weatherlink.com 1.10,2013-02-22 10:52:00,
2013-02-22 06:07:00,31.9,21.0,30.31,East,80,0.0,2.0,64,0.00,,,0.00,weatherlink.com 1.10,2013-02-22 11:07:00,
2013-02-22 06:22:00,31.7,21.0,30.30,East,82,0.0,3.0,64,0.00,,,0.00,weatherlink.com 1.10,2013-02-22 11:22:00,
2013-02-22 06:37:00,32.0,22.0,30.33,NW,316,2.0,4.0,66,0.00,,,0.00,weatherlink.com 1.10,2013-02-22 11:37:00,
2013-02-22 06:52:00,32.0,21.0,30.34,NW,323,1.0,4.0,65,0.00,,,0.00,weatherlink.com 1.10,2013-02-22 11:52:00,
2013-02-22 07:07:00,32.2,22.0,30.35,NNW,331,1.0,4.0,66,0.00,,,0.00,weatherlink.com 1.10,2013-02-22 12:07:00,
2013-02-22 07:22:00,32.1,22.0,30.35,NNW,331,0.0,1.0,66,0.00,,,0.00,weatherlink.com 1.10,2013-02-22 12:22:00,
2013-02-22 07:37:00,32.3,22.0,30.35,NNW,331,0.0,0.0,67,0.00,,,0.00,weatherlink.com 1.10,2013-02-22 12:37:00,
2013-02-22 07:52:00,32.6,23.0,30.35,NNW,331,1.0,3.0,68,0.00,,,0.00,weatherlink.com 1.10,2013-02-22 12:52:00,
2013-02-22 08:07:00,32.7,23.0,30.35,NNE,18,0.0,2.0,67,0.00,,,0.00,weatherlink.com 1.10,2013-02-22 13:07:00,
2013-02-22 08:22:00,33.0,23.0,30.35,NE,36,1.0,2.0,68,0.00,,,0.00,weatherlink.com 1.10,2013-02-22 13:22:00,
2013-02-22 08:37:00,33.4,23.0,30.34,North,11,1.0,9.0,65,0.00,,,0.00,weatherlink.com 1.10,2013-02-22 13:37:00,
2013-02-22 08:52:00,33.4,23.0,30.35,ENE,62,4.0,9.0,65,0.00,,,0.00,weatherlink.com 1.10,2013-02-22 13:52:00,
2013-02-22 09:07:00,33.4,23.0,30.34,NE,52,3.0,6.0,67,0.00,,,0.00,weatherlink.com 1.10,2013-02-22 14:07:00,
2013-02-22 09:22:00,33.3,24.0,30.33,NE,53,4.0,8.0,68,0.00,,,0.00,weatherlink.com 1.10,2013-02-22 14:22:00,
2013-02-22 09:37:00,33.1,24.0,30.33,NE,51,4.0,8.0,69,0.00,,,0.00,weatherlink.com 1.10,2013-02-22 14:37:00,
2013-02-22 09:52:00,33.3,26.0,30.33,NE,56,2.0,6.0,73,0.00,,,0.00,weatherlink.com 1.10,2013-02-22 14:52:00,
2013-02-22 10:07:00,34.1,26.0,30.32,ENE,77,8.0,10.0,71,0.00,,,0.00,weatherlink.com 1.10,2013-02-22 15:07:00,
2013-02-22 10:22:00,34.1,26.0,30.32,ENE,62,5.0,11.0,72,0.00,,,0.00,weatherlink.com 1.10,2013-02-22 15:22:00,
2013-02-22 10:37:00,34.5,26.0,30.32,East,99,7.0,7.0,72,0.00,,,0.00,weatherlink.com 1.10,2013-02-22 15:37:00,
2013-02-22 10:52:00,34.6,26.0,30.32,East,80,3.0,11.0,72,0.00,,,0.00,weatherlink.com 1.10,2013-02-22 15:52:00,
2013-02-22 11:07:00,35.1,27.0,30.31,ENE,66,5.0,10.0,72,0.00,,,0.00,weatherlink.com 1.10,2013-02-22 16:07:00,
2013-02-22 11:22:00,35.2,27.0,30.32,ENE,64,1.0,8.0,71,0.00,,,0.00,weatherlink.com 1.10,2013-02-22 16:22:00,
2013-02-22 11:37:00,35.5,27.0,30.33,ENE,74,3.0,8.0,72,0.00,,,0.00,weatherlink.com 1.10,2013-02-22 16:37:00,
2013-02-22 11:52:00,35.3,27.0,30.33,ENE,58,1.0,5.0,73,0.00,,,0.00,weatherlink.com 1.10,2013-02-22 16:52:00,
2013-02-22 12:07:00,35.8,27.0,30.31,East,92,5.0,5.0,71,0.00,,,0.00,weatherlink.com 1.10,2013-02-22 17:07:00,
2013-02-22 12:22:00,35.9,27.0,30.31,ENE,70,0.0,5.0,71,0.00,,,0.00,weatherlink.com 1.10,2013-02-22 17:22:00,
2013-02-22 12:37:00,36.0,28.0,30.31,SE,145,1.0,4.0,72,0.00,,,0.00,weatherlink.com 1.10,2013-02-22 17:37:00,
2013-02-22 13:19:00,36.6,28.0,30.30,SSW,212,0.0,7.0,71,0.00,,,0.00,weatherlink.com 1.10,2013-02-22 18:19:00,
2013-02-22 13:38:00,36.9,28.0,30.30,SSW,204,0.0,6.0,71,0.00,,,0.00,weatherlink.com 1.10,2013-02-22 18:38:00,
2013-02-22 13:53:00,36.8,28.0,30.29,SSE,158,5.0,9.0,71,0.00,,,0.00,weatherlink.com 1.10,2013-02-22 18:53:00,
2013-02-22 14:08:00,37.0,29.0,30.29,SSW,196,1.0,7.0,72,0.00,,,0.00,weatherlink.com 1.10,2013-02-22 19:08:00,
2013-02-22 14:23:00,37.4,29.0,30.29,WSW,252,0.0,4.0,71,0.00,,,0.00,weatherlink.com 1.10,2013-02-22 19:23:00,
2013-02-22 14:38:00,37.5,29.0,30.27,SSE,157,2.0,5.0,71,0.00,,,0.00,weatherlink.com 1.10,2013-02-22 19:38:00,
2013-02-22 14:53:00,37.8,30.0,30.27,ENE,72,0.0,3.0,72,0.00,,,0.00,weatherlink.com 1.10,2013-02-22 19:53:00,
2013-02-22 15:08:00,38.4,30.0,30.27,SE,146,1.0,5.0,72,0.00,,,0.00,weatherlink.com 1.10,2013-02-22 20:08:00,
2013-02-22 15:23:00,38.6,30.0,30.27,East,84,1.0,3.0,71,0.00,,,0.00,weatherlink.com 1.10,2013-02-22 20:23:00,
2013-02-22 15:38:00,38.6,32.0,30.26,SE,142,3.0,3.0,77,0.00,,,0.00,weatherlink.com 1.10,2013-02-22 20:38:00,
2013-02-22 15:53:00,38.4,32.0,30.26,SSE,161,2.0,3.0,77,0.00,,,0.00,weatherlink.com 1.10,2013-02-22 20:53:00,
2013-02-22 16:08:00,38.3,32.0,30.26,SSE,161,0.0,2.0,77,0.00,,,0.00,weatherlink.com 1.10,2013-02-22 21:08:00,
2013-02-22 16:23:00,38.0,32.0,30.26,SE,140,0.0,2.0,80,0.02,,,0.02,weatherlink.com 1.10,2013-02-22 21:23:00,
2013-02-22 16:38:00,37.4,33.0,30.25,ESE,119,0.0,2.0,85,0.04,,,0.04,weatherlink.com 1.10,2013-02-22 21:38:00,
2013-02-22 16:53:00,37.1,34.0,30.26,ESE,108,2.0,2.0,88,0.06,,,0.06,weatherlink.com 1.10,2013-02-22 21:53:00,
2013-02-22 17:08:00,37.1,34.0,30.27,ESE,108,1.0,2.0,89,0.07,,,0.07,weatherlink.com 1.10,2013-02-22 22:08:00,
2013-02-22 17:23:00,36.9,34.0,30.25,SE,132,0.0,1.0,90,0.06,,,0.08,weatherlink.com 1.10,2013-02-22 22:23:00,
2013-02-22 17:38:00,36.8,34.0,30.26,NNE,24,0.0,2.0,90,0.04,,,0.08,weatherlink.com 1.10,2013-02-22 22:38:00,
2013-02-22 17:53:00,36.4,34.0,30.26,NE,54,0.0,2.0,90,0.02,,,0.08,weatherlink.com 1.10,2013-02-22 22:53:00,
2013-02-22 18:08:00,36.3,34.0,30.27,NE,54,0.0,1.0,90,0.01,,,0.08,weatherlink.com 1.10,2013-02-22 23:08:00,
2013-02-22 18:23:00,36.2,34.0,30.26,NE,54,0.0,1.0,91,0.02,,,0.10,weatherlink.com 1.10,2013-02-22 23:23:00,
2013-02-22 18:38:00,36.2,34.0,30.26,NE,54,0.0,1.0,92,0.02,,,0.10,weatherlink.com 1.10,2013-02-22 23:38:00,
2013-02-22 18:53:00,36.1,34.0,30.25,ENE,72,0.0,2.0,92,0.02,,,0.10,weatherlink.com 1.10,2013-02-22 23:53:00,
2013-02-22 19:08:00,36.0,34.0,30.23,ENE,70,0.0,2.0,91,0.02,,,0.10,weatherlink.com 1.10,2013-02-23 00:08:00,
2013-02-22 19:23:00,36.0,34.0,30.23,ENE,70,0.0,3.0,92,0.00,,,0.10,weatherlink.com 1.10,2013-02-23 00:23:00,
2013-02-22 19:38:00,36.3,34.0,30.24,NNE,16,0.0,6.0,92,0.00,,,0.10,weatherlink.com 1.10,2013-02-23 00:38:00,
2013-02-22 19:53:00,36.0,34.0,30.23,NE,51,0.0,2.0,92,0.00,,,0.10,weatherlink.com 1.10,2013-02-23 00:53:00,
2013-02-22 20:08:00,36.0,34.0,30.24,NE,49,1.0,3.0,92,0.00,,,0.10,weatherlink.com 1.10,2013-02-23 01:08:00,
2013-02-22 20:23:00,36.0,34.0,30.24,NNE,20,0.0,2.0,92,0.00,,,0.10,weatherlink.com 1.10,2013-02-23 01:23:00,
2013-02-22 20:38:00,36.0,34.0,30.23,ENE,59,2.0,4.0,91,0.00,,,0.10,weatherlink.com 1.10,2013-02-23 01:38:00,
2013-02-22 20:53:00,35.9,34.0,30.22,East,87,0.0,3.0,92,0.00,,,0.10,weatherlink.com 1.10,2013-02-23 01:53:00,
2013-02-22 21:08:00,36.0,34.0,30.22,NNW,342,5.0,5.0,92,0.00,,,0.10,weatherlink.com 1.10,2013-02-23 02:08:00,
2013-02-22 21:23:00,36.1,34.0,30.21,NNW,340,0.0,5.0,92,0.00,,,0.10,weatherlink.com 1.10,2013-02-23 02:23:00,
2013-02-22 21:38:00,36.0,34.0,30.21,North,351,0.0,3.0,92,0.00,,,0.10,weatherlink.com 1.10,2013-02-23 02:38:00,
2013-02-22 21:53:00,36.0,34.0,30.21,NNW,346,0.0,5.0,92,0.00,,,0.10,weatherlink.com 1.10,2013-02-23 02:53:00,
2013-02-22 22:08:00,36.1,34.0,30.21,NNW,348,3.0,5.0,93,0.00,,,0.10,weatherlink.com 1.10,2013-02-23 03:08:00,
2013-02-22 22:23:00,36.1,34.0,30.21,North,355,1.0,4.0,93,0.00,,,0.10,weatherlink.com 1.10,2013-02-23 03:23:00,
2013-02-22 22:38:00,36.2,34.0,30.20,North,5,2.0,5.0,93,0.00,,,0.10,weatherlink.com 1.10,2013-02-23 03:38:00,
2013-02-22 22:53:00,36.4,35.0,30.20,North,360,1.0,5.0,93,0.00,,,0.10,weatherlink.com 1.10,2013-02-23 03:53:00,
2013-02-22 23:08:00,36.2,34.0,30.18,NNE,23,1.0,2.0,93,0.00,,,0.10,weatherlink.com 1.10,2013-02-23 04:08:00,
2013-02-22 23:23:00,36.4,35.0,30.18,North,11,2.0,3.0,94,0.00,,,0.10,weatherlink.com 1.10,2013-02-23 04:23:00,
2013-02-22 23:38:00,36.6,35.0,30.19,North,350,2.0,4.0,94,0.00,,,0.10,weatherlink.com 1.10,2013-02-23 04:38:00,
2013-02-22 23:53:00,36.8,35.0,30.20,North,360,2.0,5.0,94,0.00,,,0.10,weatherlink.com 1.10,2013-02-23 04:53:00,